createdAt,value
2019-03-03T00:00:46.858Z,92.80
2019-03-03T00:03:15.711Z,92.30
2019-03-03T00:05:44.394Z,91.40
2019-03-03T00:08:13.099Z,91.10
2019-03-03T00:10:41.928Z,90.10
2019-03-03T00:13:10.832Z,89.50
2019-03-03T00:15:39.714Z,87.30
2019-03-03T00:18:08.519Z,88.30
2019-03-03T00:20:37.295Z,86.60
2019-03-03T00:23:06.153Z,85.70
2019-03-03T00:25:34.922Z,85.50
2019-03-03T00:28:03.623Z,85.30
2019-03-03T00:30:32.401Z,85.70
2019-03-03T00:33:01.151Z,83.60
2019-03-03T00:35:31.594Z,82.80
2019-03-03T00:38:04.689Z,80.50
2019-03-03T00:40:35.107Z,80.00
2019-03-03T00:43:05.552Z,78.40
2019-03-03T00:45:38.650Z,76.60
2019-03-03T00:48:25.235Z,74.80
2019-03-03T00:51:11.649Z,75.30
2019-03-03T00:53:44.957Z,76.50
2019-03-03T00:56:18.225Z,77.10
2019-03-03T00:58:57.820Z,78.00
2019-03-03T01:01:46.487Z,77.50
2019-03-03T01:04:19.601Z,77.30
2019-03-03T01:07:01.883Z,77.50
2019-03-03T01:09:47.442Z,77.10
2019-03-03T01:12:34.288Z,74.70
2019-03-03T01:15:21.114Z,75.30
2019-03-03T01:17:57.745Z,75.10
2019-03-03T01:20:40.266Z,73.40
2019-03-03T01:23:10.658Z,71.60
2019-03-03T01:25:39.723Z,71.10
2019-03-03T01:28:08.489Z,71.60
2019-03-03T01:30:37.206Z,70.70
2019-03-03T01:33:06.085Z,72.00
2019-03-03T01:35:34.862Z,73.10
2019-03-03T01:38:03.657Z,74.60
2019-03-03T01:40:32.420Z,77.90
2019-03-03T01:43:01.139Z,79.90
2019-03-03T01:45:29.879Z,80.60
2019-03-03T01:47:58.638Z,80.20
2019-03-03T01:50:27.382Z,79.30
2019-03-03T01:52:56.176Z,78.10
2019-03-03T01:55:24.896Z,78.60
2019-03-03T01:57:53.633Z,78.80
2019-03-03T02:00:24.218Z,78.50
2019-03-03T02:02:53.569Z,78.50
2019-03-03T02:05:22.291Z,77.70
2019-03-03T02:07:51.026Z,77.10
2019-03-03T02:10:22.862Z,78.60
2019-03-03T02:12:51.799Z,78.80
2019-03-03T02:15:20.552Z,80.40
2019-03-03T02:17:49.388Z,81.00
2019-03-03T02:20:18.130Z,80.80
2019-03-03T02:22:46.912Z,81.80
2019-03-03T02:25:15.633Z,81.90
2019-03-03T02:27:44.381Z,82.50
2019-03-03T02:30:20.556Z,83.20
2019-03-03T02:32:49.478Z,83.30
2019-03-03T02:35:19.639Z,83.70
2019-03-03T02:37:48.372Z,84.60
2019-03-03T02:40:18.719Z,83.40
2019-03-03T02:42:47.464Z,83.40
2019-03-03T02:45:16.643Z,82.80
2019-03-03T02:47:45.430Z,83.30
2019-03-03T02:50:15.995Z,83.60
2019-03-03T02:52:45.453Z,84.70
2019-03-03T02:55:17.470Z,86.00
2019-03-03T02:57:46.218Z,85.50
2019-03-03T03:00:22.936Z,84.40
2019-03-03T03:03:02.662Z,85.60
2019-03-03T03:05:49.271Z,85.60
2019-03-03T03:08:31.687Z,85.70
2019-03-03T03:11:21.309Z,84.00
2019-03-03T03:13:57.668Z,84.70
2019-03-03T03:16:28.123Z,84.20
2019-03-03T03:19:01.416Z,83.70
2019-03-03T03:21:34.514Z,84.80
2019-03-03T03:24:06.149Z,85.00
2019-03-03T03:26:39.149Z,83.10
2019-03-03T03:29:24.264Z,83.00
2019-03-03T03:31:54.763Z,82.90
2019-03-03T03:34:25.118Z,81.30
2019-03-03T03:37:10.624Z,81.20
2019-03-03T03:39:41.003Z,81.00
2019-03-03T03:42:12.095Z,81.40
2019-03-03T03:44:48.582Z,84.10
2019-03-03T03:47:25.829Z,85.10
2019-03-03T03:49:56.260Z,84.70
2019-03-03T03:52:35.692Z,84.00
2019-03-03T03:55:11.122Z,83.20
2019-03-03T03:57:57.720Z,84.70
2019-03-03T04:00:28.164Z,83.90
2019-03-03T04:03:01.579Z,82.50
2019-03-03T04:05:31.951Z,84.30
2019-03-03T04:08:08.159Z,83.70
2019-03-03T04:10:38.594Z,83.30
2019-03-03T04:13:08.999Z,83.70
2019-03-03T04:15:45.107Z,83.70
2019-03-03T04:18:15.527Z,84.30
2019-03-03T04:20:45.931Z,84.40
2019-03-03T04:23:18.862Z,83.90
2019-03-03T04:25:49.230Z,84.50
2019-03-03T04:28:34.706Z,84.70
2019-03-03T04:31:21.560Z,85.20
2019-03-03T04:34:07.657Z,84.10
2019-03-03T04:36:50.035Z,83.20
2019-03-03T04:39:20.419Z,83.90
2019-03-03T04:41:56.795Z,83.60
2019-03-03T04:44:29.838Z,83.60
2019-03-03T04:47:16.085Z,82.90
2019-03-03T04:49:52.513Z,80.80
2019-03-03T04:52:28.923Z,80.00
2019-03-03T04:55:02.139Z,80.30
2019-03-03T04:57:44.407Z,80.90
2019-03-03T05:00:15.116Z,79.80
2019-03-03T05:02:54.510Z,80.20
2019-03-03T05:05:24.990Z,79.10
2019-03-03T05:08:10.141Z,79.60
2019-03-03T05:10:43.084Z,79.00
2019-03-03T05:13:22.482Z,79.70
2019-03-03T05:16:09.045Z,78.60
2019-03-03T05:18:39.405Z,78.40
2019-03-03T05:21:08.107Z,77.30
2019-03-03T05:23:36.847Z,77.60
2019-03-03T05:26:05.563Z,76.00
2019-03-03T05:28:34.300Z,76.30
2019-03-03T05:31:03.150Z,76.80
2019-03-03T05:33:31.862Z,76.70
2019-03-03T05:36:00.690Z,76.40
2019-03-03T05:38:29.462Z,76.40
2019-03-03T05:40:58.149Z,75.70
2019-03-03T05:43:26.908Z,75.80
2019-03-03T05:45:55.724Z,76.00
2019-03-03T05:48:24.485Z,78.10
2019-03-03T05:50:53.230Z,78.00
2019-03-03T05:53:22.041Z,75.90
2019-03-03T05:55:50.788Z,75.50
2019-03-03T05:58:19.506Z,75.50
2019-03-03T06:00:48.365Z,75.60
2019-03-03T06:03:17.070Z,74.40
2019-03-03T06:05:47.429Z,76.80
2019-03-03T06:08:16.351Z,77.30
2019-03-03T06:10:45.066Z,77.20
2019-03-03T06:13:13.781Z,75.60
2019-03-03T06:15:42.507Z,77.00
2019-03-03T06:18:11.340Z,74.80
2019-03-03T06:20:40.229Z,74.70
2019-03-03T06:23:09.002Z,74.70
2019-03-03T06:25:37.696Z,74.10
2019-03-03T06:28:06.438Z,74.40
2019-03-03T06:30:35.140Z,76.00
2019-03-03T06:33:03.958Z,75.80
2019-03-03T06:35:32.662Z,76.00
2019-03-03T06:38:02.338Z,76.30
2019-03-03T06:40:33.302Z,76.40
2019-03-03T06:43:02.676Z,74.70
2019-03-03T06:45:31.477Z,75.90
2019-03-03T06:48:00.225Z,74.80
2019-03-03T06:50:30.644Z,76.30
2019-03-03T06:52:59.523Z,76.50
2019-03-03T06:55:41.794Z,76.00
2019-03-03T06:58:10.711Z,75.80
2019-03-03T07:00:41.203Z,76.70
2019-03-03T07:03:10.065Z,76.80
2019-03-03T07:05:38.939Z,76.60
2019-03-03T07:08:07.707Z,77.40
2019-03-03T07:10:36.570Z,76.10
2019-03-03T07:13:05.448Z,74.40
2019-03-03T07:15:34.300Z,76.30
2019-03-03T07:18:03.139Z,76.20
2019-03-03T07:20:31.907Z,77.00
2019-03-03T07:23:00.606Z,76.40
2019-03-03T07:25:29.379Z,77.20
2019-03-03T07:27:58.166Z,76.50
2019-03-03T07:30:26.932Z,77.30
2019-03-03T07:33:06.099Z,76.30
2019-03-03T07:35:34.930Z,76.40
2019-03-03T07:38:04.167Z,76.40
2019-03-03T07:40:33.568Z,77.30
2019-03-03T07:43:02.353Z,77.70
2019-03-03T07:45:31.457Z,75.60
2019-03-03T07:48:02.629Z,75.20
2019-03-03T07:50:34.037Z,75.50
2019-03-03T07:53:06.799Z,73.90
2019-03-03T07:55:39.111Z,73.80
2019-03-03T07:58:08.116Z,76.50
2019-03-03T08:00:38.574Z,76.70
2019-03-03T08:03:07.482Z,77.70
2019-03-03T08:05:36.415Z,78.90
2019-03-03T08:08:09.284Z,78.40
2019-03-03T08:10:40.001Z,79.10
2019-03-03T08:13:11.367Z,78.70
2019-03-03T08:15:40.532Z,76.80
2019-03-03T08:18:10.824Z,77.10
2019-03-03T08:20:42.099Z,80.50
2019-03-03T08:23:14.310Z,82.70
2019-03-03T08:25:47.593Z,82.30
2019-03-03T08:28:14.719Z,81.90
2019-03-03T08:30:45.252Z,82.60
2019-03-03T08:33:14.024Z,82.60
2019-03-03T08:35:43.045Z,81.70
2019-03-03T08:38:11.895Z,81.70
2019-03-03T08:40:41.121Z,81.10
2019-03-03T08:43:14.054Z,81.30
2019-03-03T08:45:45.957Z,81.70
2019-03-03T08:48:16.387Z,83.80
2019-03-03T08:51:03.136Z,82.10
2019-03-03T08:53:36.754Z,81.70
2019-03-03T08:56:14.304Z,80.90
2019-03-03T08:58:51.932Z,80.60
2019-03-03T09:01:25.148Z,81.00
2019-03-03T09:04:04.534Z,80.30
2019-03-03T09:06:35.122Z,82.00
2019-03-03T09:09:07.063Z,81.90
2019-03-03T09:11:40.275Z,79.70
2019-03-03T09:14:13.623Z,80.10
2019-03-03T09:17:07.352Z,78.60
2019-03-03T09:22:58.148Z,76.50
2019-03-03T09:25:33.107Z,76.70
2019-03-03T09:28:19.942Z,75.10
2019-03-03T09:30:50.401Z,77.20
2019-03-03T09:33:26.757Z,75.80
2019-03-03T09:36:09.045Z,75.20
2019-03-03T09:38:55.519Z,73.20
2019-03-03T09:41:28.946Z,73.10
2019-03-03T09:44:11.202Z,71.70
2019-03-03T09:46:41.633Z,72.70
2019-03-03T09:49:12.060Z,74.20
2019-03-03T09:51:42.587Z,73.80
2019-03-03T09:54:19.822Z,72.20
2019-03-03T09:56:56.117Z,72.30
2019-03-03T09:59:29.594Z,73.80
2019-03-03T10:02:12.227Z,73.40
2019-03-03T10:04:42.611Z,74.10
2019-03-03T10:07:22.274Z,76.20
2019-03-03T10:10:01.877Z,75.90
2019-03-03T10:12:39.866Z,76.40
2019-03-03T10:15:12.356Z,78.80
2019-03-03T10:17:42.874Z,86.50
2019-03-03T10:20:16.137Z,89.10
2019-03-03T10:22:46.592Z,89.70
2019-03-03T10:25:19.927Z,91.00
2019-03-03T10:27:53.203Z,91.00
2019-03-03T10:30:32.207Z,91.10
2019-03-03T10:33:08.183Z,90.70
2019-03-03T10:35:44.398Z,91.00
2019-03-03T10:38:14.863Z,91.10
2019-03-03T10:40:53.098Z,91.30
2019-03-03T10:43:23.581Z,91.70
2019-03-03T10:45:53.996Z,91.80
2019-03-03T10:48:27.499Z,91.80
2019-03-03T10:51:04.131Z,91.30
2019-03-03T10:53:43.348Z,91.10
2019-03-03T10:56:16.883Z,91.60
2019-03-03T10:58:50.059Z,91.10
2019-03-03T11:01:36.766Z,91.30
2019-03-03T11:04:18.892Z,91.30
2019-03-03T11:06:50.321Z,90.80
2019-03-03T11:09:22.295Z,90.60
2019-03-03T11:11:55.499Z,90.50
2019-03-03T11:14:31.834Z,90.70
2019-03-03T11:17:08.328Z,90.60
2019-03-03T11:19:47.859Z,90.90
2019-03-03T11:22:27.749Z,90.80
2019-03-03T11:25:13.321Z,90.40
2019-03-03T11:27:48.081Z,90.30
2019-03-03T11:30:26.007Z,90.10
2019-03-03T11:33:13.004Z,90.40
2019-03-03T11:35:44.924Z,90.60
2019-03-03T11:38:21.303Z,90.30
2019-03-03T11:41:06.561Z,89.90
2019-03-03T11:43:49.055Z,90.10
2019-03-03T11:46:19.452Z,90.10
2019-03-03T11:48:55.775Z,89.60
2019-03-03T11:51:42.469Z,89.70
2019-03-03T11:54:13.996Z,89.60
2019-03-03T11:56:45.145Z,89.70
2019-03-03T11:59:33.713Z,88.70
2019-03-03T12:02:12.642Z,89.30
2019-03-03T12:04:43.199Z,89.70
2019-03-03T12:07:20.070Z,89.10
2019-03-03T12:10:06.122Z,88.00
2019-03-03T12:12:36.598Z,87.50
2019-03-03T12:15:12.989Z,87.50
2019-03-03T12:18:02.133Z,87.00
2019-03-03T12:20:36.105Z,86.60
2019-03-03T12:23:17.077Z,87.10
2019-03-03T12:25:53.007Z,86.70
2019-03-03T12:28:25.776Z,87.30
2019-03-03T12:30:57.695Z,86.70
2019-03-03T12:33:33.829Z,86.30
2019-03-03T12:36:05.054Z,86.80
2019-03-03T12:38:36.361Z,86.30
2019-03-03T12:41:18.720Z,86.50
2019-03-03T12:43:55.654Z,85.00
2019-03-03T12:46:38.262Z,84.60
2019-03-03T12:49:11.767Z,84.80
2019-03-03T12:51:42.264Z,84.10
2019-03-03T12:54:16.940Z,84.70
2019-03-03T12:56:47.393Z,83.80
2019-03-03T12:59:26.911Z,83.80
2019-03-03T13:02:06.124Z,84.20
2019-03-03T13:04:53.957Z,84.40
2019-03-03T13:07:30.089Z,83.50
2019-03-03T13:10:06.306Z,83.60
2019-03-03T13:12:39.727Z,83.60
2019-03-03T13:15:20.861Z,82.20
2019-03-03T13:17:56.065Z,83.80
2019-03-03T13:20:26.521Z,83.00
2019-03-03T13:22:56.911Z,82.90
2019-03-03T13:25:30.183Z,83.10
2019-03-03T13:28:00.648Z,82.40
2019-03-03T13:30:43.649Z,83.50
2019-03-03T13:33:17.199Z,82.90
2019-03-03T13:35:57.076Z,83.50
2019-03-03T13:38:33.113Z,84.10
2019-03-03T13:41:17.327Z,85.10
2019-03-03T13:43:48.017Z,85.90
2019-03-03T13:46:20.166Z,86.80
2019-03-03T13:48:51.231Z,88.10
2019-03-03T13:51:20.974Z,88.80
2019-03-03T13:53:52.880Z,88.30
2019-03-03T13:56:21.968Z,88.00
2019-03-03T13:58:51.952Z,88.80
2019-03-03T14:01:20.858Z,86.80
2019-03-03T14:03:50.528Z,87.20
2019-03-03T14:06:21.554Z,84.90
2019-03-03T14:08:52.432Z,84.50
2019-03-03T14:11:40.573Z,84.40
2019-03-03T14:14:11.476Z,82.00
2019-03-03T14:16:41.193Z,81.80
2019-03-03T14:19:10.606Z,82.40
2019-03-03T14:21:39.505Z,81.50
2019-03-03T14:24:08.456Z,82.60
2019-03-03T14:26:37.246Z,82.80
2019-03-03T14:29:06.186Z,81.40
2019-03-03T14:31:34.965Z,80.80
2019-03-03T14:34:03.907Z,80.50
2019-03-03T14:36:32.722Z,80.10
2019-03-03T14:39:01.515Z,79.50
2019-03-03T14:41:30.292Z,78.60
2019-03-03T14:44:00.493Z,78.90
2019-03-03T14:46:30.096Z,76.60
2019-03-03T14:48:58.987Z,77.00
2019-03-03T14:51:28.528Z,78.10
2019-03-03T14:53:57.423Z,80.80
2019-03-03T14:56:26.376Z,81.60
2019-03-03T14:58:55.133Z,82.20
2019-03-03T15:01:23.941Z,84.10
2019-03-03T15:03:52.838Z,83.60
2019-03-03T15:06:24.705Z,83.70
2019-03-03T15:08:52.863Z,84.70
2019-03-03T15:11:21.743Z,85.00
2019-03-03T15:13:50.817Z,84.90
2019-03-03T15:16:19.653Z,83.60
2019-03-03T15:18:49.144Z,83.90
2019-03-03T15:21:24.758Z,84.10
2019-03-03T15:23:49.305Z,83.90
2019-03-03T15:26:18.706Z,83.60
2019-03-03T15:28:47.672Z,84.10
2019-03-03T15:31:16.428Z,83.70
2019-03-03T15:33:45.238Z,84.10
2019-03-03T15:36:14.121Z,84.60
2019-03-03T15:38:42.991Z,83.70
2019-03-03T15:41:11.820Z,82.80
2019-03-03T15:43:45.454Z,82.20
2019-03-03T15:46:14.214Z,81.10
2019-03-03T15:48:43.084Z,81.50
2019-03-03T15:51:12.962Z,81.10
2019-03-03T15:53:41.733Z,81.40
2019-03-03T15:56:10.553Z,81.70
2019-03-03T15:58:40.101Z,81.40
2019-03-03T16:01:17.532Z,80.80
2019-03-03T16:03:47.644Z,80.40
2019-03-03T16:09:14.777Z,81.60
2019-03-03T16:11:44.616Z,81.70
2019-03-03T16:14:13.758Z,81.80
2019-03-03T16:16:43.188Z,82.50
2019-03-03T16:19:12.053Z,82.10
2019-03-03T16:21:40.820Z,82.10
2019-03-03T16:24:11.197Z,82.50
2019-03-03T16:26:40.825Z,83.20
2019-03-03T16:29:09.574Z,83.40
2019-03-03T16:31:38.440Z,84.30
2019-03-03T16:34:07.287Z,84.50
2019-03-03T16:36:36.975Z,84.10
2019-03-03T16:39:06.833Z,84.70
2019-03-03T16:41:35.688Z,84.10
2019-03-03T16:44:04.442Z,83.50
2019-03-03T16:46:33.230Z,83.70
2019-03-03T16:49:02.067Z,83.80
2019-03-03T16:51:30.970Z,84.10
2019-03-03T16:53:59.731Z,84.60
2019-03-03T16:56:28.605Z,84.60
2019-03-03T16:58:58.919Z,84.80
2019-03-03T17:01:28.589Z,84.40
2019-03-03T17:03:57.548Z,84.40
2019-03-03T17:06:26.308Z,84.40
2019-03-03T17:08:56.280Z,83.50
2019-03-03T17:11:25.105Z,84.60
2019-03-03T17:13:53.940Z,83.70
2019-03-03T17:16:22.792Z,83.10
2019-03-03T17:18:51.547Z,82.90
2019-03-03T17:21:20.329Z,83.90
2019-03-03T17:23:49.108Z,83.60
2019-03-03T17:26:18.294Z,83.60
2019-03-03T17:28:47.165Z,82.60
2019-03-03T17:31:16.292Z,81.60
2019-03-03T17:33:45.285Z,81.60
2019-03-03T17:36:15.006Z,80.30
2019-03-03T17:38:44.495Z,78.80
2019-03-03T17:41:13.346Z,78.40
2019-03-03T17:43:42.161Z,76.20
2019-03-03T17:46:10.984Z,76.30
2019-03-03T17:48:40.233Z,76.00
2019-03-03T17:51:09.245Z,76.60
2019-03-03T17:53:38.048Z,79.00
2019-03-03T17:56:13.406Z,78.90
2019-03-03T17:58:42.217Z,79.30
2019-03-03T18:01:10.971Z,79.80
2019-03-03T18:03:39.934Z,79.00
2019-03-03T18:06:08.861Z,76.90
2019-03-03T18:08:38.701Z,74.50
2019-03-03T18:11:07.445Z,74.10
2019-03-03T18:13:36.332Z,74.00
2019-03-03T18:16:05.538Z,73.60
2019-03-03T18:18:34.308Z,74.10
2019-03-03T18:21:03.149Z,74.10
2019-03-03T18:23:33.897Z,74.30
2019-03-03T18:26:02.721Z,74.10
2019-03-03T18:28:31.719Z,75.40
2019-03-03T18:31:00.663Z,75.60
2019-03-03T18:33:29.502Z,75.10
2019-03-03T18:35:58.301Z,75.50
2019-03-03T18:38:27.122Z,72.30
2019-03-03T18:40:55.998Z,68.80
2019-03-03T18:43:25.420Z,64.80
2019-03-03T18:45:55.627Z,64.30
2019-03-03T18:48:24.739Z,63.40
2019-03-03T18:50:57.239Z,63.90
2019-03-03T18:53:26.079Z,63.30
2019-03-03T18:55:55.064Z,63.80
2019-03-03T18:58:26.140Z,63.10
2019-03-03T19:00:56.805Z,62.90
2019-03-03T19:03:25.775Z,62.50
2019-03-03T19:05:57.702Z,61.60
2019-03-03T19:08:30.428Z,62.60
2019-03-03T19:11:00.354Z,62.80
2019-03-03T19:13:30.754Z,63.50
2019-03-03T19:16:00.787Z,64.30
2019-03-03T19:18:30.735Z,64.40
2019-03-03T19:21:17.336Z,65.70
2019-03-03T19:23:46.486Z,65.00
2019-03-03T19:26:15.467Z,66.50
2019-03-03T19:28:47.034Z,66.50
2019-03-03T19:31:16.142Z,66.40
2019-03-03T19:33:48.646Z,65.60
2019-03-03T19:36:19.210Z,64.90
2019-03-03T19:38:48.073Z,65.60
2019-03-03T19:41:17.630Z,66.70
2019-03-03T19:43:46.690Z,66.30
2019-03-03T19:46:17.267Z,66.20
2019-03-03T19:48:47.069Z,66.60
2019-03-03T19:51:16.645Z,65.90
2019-03-03T19:53:45.679Z,65.10
2019-03-03T19:56:17.332Z,64.80
2019-03-03T19:58:54.577Z,64.80
2019-03-03T20:01:26.956Z,64.80
2019-03-03T20:06:52.120Z,64.30
2019-03-03T20:09:23.602Z,65.10
2019-03-03T20:11:56.454Z,65.80
2019-03-03T20:14:28.470Z,65.30
2019-03-03T20:16:57.388Z,65.70
2019-03-03T20:19:26.832Z,66.40
2019-03-03T20:21:55.867Z,66.90
2019-03-03T20:24:25.220Z,67.30
2019-03-03T20:27:01.903Z,67.10
2019-03-03T20:29:31.863Z,67.20
2019-03-03T20:32:08.670Z,66.10
2019-03-03T20:34:39.525Z,66.10
2019-03-03T20:37:24.625Z,66.20
2019-03-03T20:39:57.543Z,65.20
2019-03-03T20:42:29.037Z,66.00
2019-03-03T20:44:58.985Z,66.80
2019-03-03T20:47:41.094Z,64.50
2019-03-03T20:50:13.328Z,64.00
2019-03-03T20:52:50.235Z,64.50
2019-03-03T20:55:36.255Z,61.40
2019-03-03T20:58:09.639Z,60.80
2019-03-03T21:00:41.904Z,61.60
2019-03-03T21:03:15.468Z,61.80
2019-03-03T21:05:47.779Z,62.60
2019-03-03T21:08:20.117Z,63.20
2019-03-03T21:10:57.551Z,63.80
2019-03-03T21:13:28.584Z,64.30
2019-03-03T21:16:02.634Z,65.60
2019-03-03T21:18:32.938Z,65.90
2019-03-03T21:21:06.073Z,65.10
2019-03-03T21:23:43.614Z,66.10
2019-03-03T21:26:15.303Z,65.90
2019-03-03T21:28:44.186Z,66.00
2019-03-03T21:31:14.767Z,65.20
2019-03-03T21:33:44.866Z,66.10
2019-03-03T21:36:18.127Z,66.00
2019-03-03T21:38:50.432Z,65.90
2019-03-03T21:41:19.607Z,65.50
2019-03-03T21:44:04.414Z,65.80
2019-03-03T21:46:33.640Z,65.90
2019-03-03T21:49:03.089Z,64.90
2019-03-03T21:51:32.454Z,65.30
2019-03-03T21:54:03.344Z,65.70
2019-03-03T21:56:33.657Z,66.90
2019-03-03T21:59:02.811Z,65.50
2019-03-03T22:01:42.107Z,66.40
2019-03-03T22:04:12.368Z,65.70
2019-03-03T22:06:42.207Z,65.30
2019-03-03T22:12:01.699Z,65.00
2019-03-03T22:14:34.447Z,66.30
2019-03-03T22:17:03.628Z,66.80
2019-03-03T22:19:35.835Z,67.40
2019-03-03T22:22:06.233Z,66.60
2019-03-03T22:24:37.004Z,66.40
2019-03-03T22:27:05.956Z,67.10
2019-03-03T22:29:34.950Z,66.50
2019-03-03T22:32:04.515Z,66.20
2019-03-03T22:34:34.470Z,67.00
2019-03-03T22:37:04.193Z,65.90
2019-03-03T22:39:33.025Z,65.90
2019-03-03T22:42:02.216Z,65.90
2019-03-03T22:44:35.329Z,64.30
2019-03-03T22:47:04.508Z,64.80
2019-03-03T22:49:34.037Z,65.00
2019-03-03T22:52:03.804Z,65.00
2019-03-03T22:54:33.980Z,65.40
2019-03-03T22:57:02.890Z,65.30
2019-03-03T22:59:31.881Z,65.10
2019-03-03T23:02:02.759Z,66.20
2019-03-03T23:04:59.562Z,66.20
2019-03-03T23:07:37.462Z,66.20
2019-03-03T23:10:16.811Z,66.80
2019-03-03T23:12:49.489Z,67.00
2019-03-03T23:15:44.982Z,66.50
2019-03-03T23:18:16.821Z,67.00
2019-03-03T23:21:06.740Z,66.20
2019-03-03T23:23:38.988Z,66.20
2019-03-03T23:26:16.492Z,64.30
2019-03-03T23:28:42.657Z,64.30
2019-03-03T23:31:12.349Z,67.00
2019-03-03T23:33:41.718Z,66.60
2019-03-03T23:36:10.749Z,68.00
2019-03-03T23:38:41.415Z,67.70
2019-03-03T23:41:10.550Z,68.40
2019-03-03T23:43:40.156Z,67.30
2019-03-03T23:46:08.940Z,67.50
2019-03-03T23:48:38.808Z,67.30
2019-03-03T23:51:08.539Z,67.10
2019-03-03T23:53:39.682Z,67.20
2019-03-03T23:56:10.586Z,66.50
2019-03-03T23:58:39.783Z,66.60
